createdAt,value
2022-08-26T00:00:57.882Z,21.25
2022-08-26T00:03:02.080Z,21.47
2022-08-26T00:05:06.171Z,21.61
2022-08-26T00:07:11.845Z,21.72
2022-08-26T00:09:16.118Z,21.78
2022-08-26T00:11:26.993Z,21.70
2022-08-26T00:13:29.842Z,21.57
2022-08-26T00:15:32.712Z,21.59
2022-08-26T00:17:35.833Z,21.39
2022-08-26T00:19:44.192Z,21.30
2022-08-26T00:21:48.735Z,21.17
2022-08-26T00:23:52.395Z,21.09
2022-08-26T00:25:55.277Z,21.05
2022-08-26T00:27:59.463Z,21.00
2022-08-26T00:30:02.211Z,20.99
2022-08-26T00:32:05.210Z,20.95
2022-08-26T00:34:08.370Z,20.90
2022-08-26T00:36:20.305Z,20.83
2022-08-26T00:38:23.321Z,20.87
2022-08-26T00:40:30.738Z,20.89
2022-08-26T00:42:33.481Z,20.92
2022-08-26T00:44:36.257Z,20.89
2022-08-26T00:46:44.995Z,20.84
2022-08-26T00:48:53.597Z,20.77
2022-08-26T00:50:59.360Z,20.78
2022-08-26T00:53:21.426Z,20.81
2022-08-26T00:55:34.675Z,20.83
2022-08-26T00:57:41.067Z,20.74
2022-08-26T00:59:48.146Z,20.79
2022-08-26T01:01:51.619Z,20.76
2022-08-26T01:03:56.495Z,20.79
2022-08-26T01:06:00.925Z,20.82
2022-08-26T01:08:05.207Z,20.83
2022-08-26T01:10:11.305Z,20.86
2022-08-26T01:12:14.944Z,20.83
2022-08-26T01:14:27.705Z,20.88
2022-08-26T01:16:31.922Z,21.04
2022-08-26T01:18:35.878Z,21.21
2022-08-26T01:20:47.152Z,21.06
2022-08-26T01:22:57.210Z,20.97
2022-08-26T01:25:03.719Z,20.95
2022-08-26T01:27:09.654Z,20.84
2022-08-26T01:29:16.804Z,20.72
2022-08-26T01:31:23.760Z,20.68
2022-08-26T01:33:39.015Z,20.65
2022-08-26T01:35:45.688Z,20.60
2022-08-26T01:37:50.860Z,20.61
2022-08-26T01:39:57.833Z,20.63
2022-08-26T01:42:03.233Z,20.60
2022-08-26T01:44:09.695Z,20.61
2022-08-26T01:46:14.054Z,20.62
2022-08-26T01:48:21.218Z,20.60
2022-08-26T01:50:30.608Z,20.68
2022-08-26T01:52:36.790Z,20.61
2022-08-26T01:54:39.537Z,20.42
2022-08-26T01:56:44.171Z,20.44
2022-08-26T01:58:50.716Z,20.40
2022-08-26T02:00:54.254Z,20.39
2022-08-26T02:03:12.633Z,20.33
2022-08-26T02:05:18.975Z,20.30
2022-08-26T02:07:22.548Z,20.25
2022-08-26T02:09:29.402Z,20.19
2022-08-26T02:11:34.855Z,20.22
2022-08-26T02:13:44.552Z,20.19
2022-08-26T02:15:47.942Z,20.11
2022-08-26T02:17:52.658Z,20.09
2022-08-26T02:19:56.683Z,20.03
2022-08-26T02:22:01.608Z,20.06
2022-08-26T02:24:11.442Z,20.07
2022-08-26T02:26:19.338Z,20.06
2022-08-26T02:28:22.583Z,20.04
2022-08-26T02:30:32.975Z,20.10
2022-08-26T02:32:35.573Z,20.24
2022-08-26T02:34:38.226Z,20.45
2022-08-26T02:36:41.323Z,20.50
2022-08-26T02:38:43.913Z,20.38
2022-08-26T02:40:48.914Z,20.46
2022-08-26T02:42:56.103Z,20.53
2022-08-26T02:44:59.928Z,20.64
2022-08-26T02:47:04.461Z,20.77
2022-08-26T02:49:08.145Z,20.66
2022-08-26T02:51:11.369Z,20.49
2022-08-26T02:53:14.689Z,20.46
2022-08-26T02:55:17.595Z,20.40
2022-08-26T02:57:20.655Z,20.39
2022-08-26T02:59:24.802Z,20.32
2022-08-26T03:01:30.113Z,20.23
2022-08-26T03:03:34.365Z,20.16
2022-08-26T03:05:37.338Z,20.05
2022-08-26T03:07:40.925Z,20.00
2022-08-26T03:09:43.579Z,19.91
2022-08-26T03:11:47.194Z,19.91
2022-08-26T03:13:50.346Z,19.90
2022-08-26T03:15:53.031Z,19.75
2022-08-26T03:17:56.822Z,19.79
2022-08-26T03:20:01.084Z,19.68
2022-08-26T03:22:04.815Z,19.67
2022-08-26T03:24:07.593Z,19.65
2022-08-26T03:26:12.090Z,19.57
2022-08-26T03:28:14.812Z,19.61
2022-08-26T03:30:39.746Z,19.54
2022-08-26T03:32:48.141Z,19.59
2022-08-26T03:34:50.942Z,19.41
2022-08-26T03:36:55.319Z,19.41
2022-08-26T03:38:58.064Z,19.47
2022-08-26T03:41:01.003Z,19.53
2022-08-26T03:43:05.743Z,19.53
2022-08-26T03:45:11.934Z,19.51
2022-08-26T03:47:14.620Z,19.55
2022-08-26T03:49:17.482Z,19.50
2022-08-26T03:51:20.827Z,19.36
2022-08-26T03:53:25.132Z,19.37
2022-08-26T03:55:31.935Z,19.35
2022-08-26T03:57:34.697Z,19.32
2022-08-26T03:59:38.276Z,19.32
2022-08-26T04:01:43.992Z,19.32
2022-08-26T04:04:00.265Z,19.38
2022-08-26T04:06:06.079Z,19.39
2022-08-26T04:08:08.779Z,19.41
2022-08-26T04:10:20.390Z,19.40
2022-08-26T04:12:23.076Z,19.36
2022-08-26T04:14:28.628Z,19.34
2022-08-26T04:16:31.739Z,19.28
2022-08-26T04:18:37.114Z,19.30
2022-08-26T04:20:40.071Z,19.25
2022-08-26T04:22:43.095Z,19.23
2022-08-26T04:24:46.364Z,19.25
2022-08-26T04:26:50.868Z,19.12
2022-08-26T04:28:56.790Z,19.14
2022-08-26T04:30:59.399Z,19.15
2022-08-26T04:33:04.480Z,19.17
2022-08-26T04:35:15.410Z,19.18
2022-08-26T04:37:18.019Z,19.16
2022-08-26T04:39:21.128Z,19.11
2022-08-26T04:41:23.972Z,19.13
2022-08-26T04:43:30.594Z,19.09
2022-08-26T04:45:36.381Z,19.06
2022-08-26T04:47:39.357Z,19.06
2022-08-26T04:49:42.005Z,19.05
2022-08-26T04:51:44.600Z,19.05
2022-08-26T04:53:47.762Z,18.96
2022-08-26T04:55:52.422Z,18.98
2022-08-26T04:57:58.279Z,18.98
2022-08-26T05:00:02.216Z,18.92
2022-08-26T05:02:06.919Z,18.78
2022-08-26T05:04:09.713Z,18.81
2022-08-26T05:06:13.100Z,18.80
2022-08-26T05:08:16.588Z,18.83
2022-08-26T05:10:19.513Z,18.83
2022-08-26T05:12:23.268Z,18.83
2022-08-26T05:14:25.899Z,18.84
2022-08-26T05:16:30.335Z,18.83
2022-08-26T05:18:35.070Z,18.89
2022-08-26T05:20:40.587Z,19.22
2022-08-26T05:22:43.519Z,19.49
2022-08-26T05:24:46.488Z,19.68
2022-08-26T05:26:49.559Z,19.63
2022-08-26T05:28:54.944Z,19.64
2022-08-26T05:30:58.109Z,19.64
2022-08-26T05:33:02.505Z,19.70
2022-08-26T05:35:08.741Z,19.63
2022-08-26T05:37:11.657Z,19.53
2022-08-26T05:39:16.361Z,19.45
2022-08-26T05:41:21.567Z,19.43
2022-08-26T05:43:24.155Z,19.49
2022-08-26T05:45:28.341Z,19.47
2022-08-26T05:47:30.954Z,19.45
2022-08-26T05:49:34.906Z,19.40
2022-08-26T05:51:47.802Z,19.44
2022-08-26T05:53:54.352Z,19.44
2022-08-26T05:55:58.147Z,19.50
2022-08-26T05:58:01.048Z,19.52
2022-08-26T06:00:06.370Z,19.47
2022-08-26T06:02:09.105Z,19.47
2022-08-26T06:04:12.611Z,19.55
2022-08-26T06:06:20.767Z,19.55
2022-08-26T06:08:30.049Z,19.45
2022-08-26T06:10:33.414Z,19.19
2022-08-26T06:12:36.054Z,19.26
2022-08-26T06:14:38.611Z,19.24
2022-08-26T06:16:45.032Z,19.31
2022-08-26T06:18:48.605Z,19.35
2022-08-26T06:20:57.670Z,19.41
2022-08-26T06:23:19.719Z,19.46
2022-08-26T06:25:39.271Z,19.44
2022-08-26T06:27:41.870Z,19.50
2022-08-26T06:29:44.440Z,19.56
2022-08-26T06:31:47.108Z,19.66
2022-08-26T06:33:52.227Z,19.73
2022-08-26T06:35:54.817Z,19.77
2022-08-26T06:37:57.423Z,19.83
2022-08-26T06:40:01.512Z,19.89
2022-08-26T06:42:07.153Z,19.90
2022-08-26T06:44:09.691Z,19.98
2022-08-26T06:46:14.599Z,20.02
2022-08-26T06:48:20.032Z,20.06
2022-08-26T06:50:22.667Z,20.09
2022-08-26T06:52:25.478Z,20.12
2022-08-26T06:54:30.237Z,20.18
2022-08-26T06:56:36.742Z,20.23
2022-08-26T06:58:40.780Z,20.28
2022-08-26T07:00:47.416Z,20.36
2022-08-26T07:02:50.200Z,20.38
2022-08-26T07:04:52.996Z,20.34
2022-08-26T07:07:00.218Z,20.40
2022-08-26T07:09:05.943Z,20.47
2022-08-26T07:11:13.391Z,20.53
2022-08-26T07:13:18.173Z,20.57
2022-08-26T07:15:33.588Z,20.63
2022-08-26T07:17:36.295Z,20.70
2022-08-26T07:19:39.147Z,20.70
2022-08-26T07:21:42.453Z,20.73
2022-08-26T07:23:45.338Z,20.75
2022-08-26T07:25:49.497Z,20.82
2022-08-26T07:27:54.022Z,20.86
2022-08-26T07:29:58.455Z,20.90
2022-08-26T07:32:01.297Z,20.94
2022-08-26T07:34:04.507Z,20.98
2022-08-26T07:36:08.861Z,21.03
2022-08-26T07:38:11.528Z,21.02
2022-08-26T07:40:16.995Z,21.05
2022-08-26T07:42:21.729Z,21.03
2022-08-26T07:44:27.106Z,21.01
2022-08-26T07:46:31.103Z,21.02
2022-08-26T07:48:34.070Z,21.03
2022-08-26T07:50:49.115Z,21.06
2022-08-26T07:52:53.020Z,21.08
2022-08-26T07:54:56.968Z,21.12
2022-08-26T07:56:59.794Z,21.16
2022-08-26T07:59:02.462Z,21.20
2022-08-26T08:01:05.720Z,21.24
2022-08-26T08:03:11.563Z,21.27
2022-08-26T08:05:16.415Z,21.33
2022-08-26T08:07:20.148Z,21.36
2022-08-26T08:09:23.559Z,21.40
2022-08-26T08:11:29.492Z,21.45
2022-08-26T08:13:32.967Z,21.48
2022-08-26T08:15:37.548Z,21.53
2022-08-26T08:17:43.349Z,21.56
2022-08-26T08:19:48.019Z,21.59
2022-08-26T08:21:50.691Z,21.61
2022-08-26T08:23:55.307Z,21.66
2022-08-26T08:26:02.431Z,21.69
2022-08-26T08:28:05.327Z,21.73
2022-08-26T08:30:10.800Z,21.75
2022-08-26T08:32:17.758Z,21.80
2022-08-26T08:34:21.423Z,21.84
2022-08-26T08:36:25.961Z,21.86
2022-08-26T08:38:38.664Z,21.89
2022-08-26T08:40:42.384Z,21.91
2022-08-26T08:42:48.600Z,21.93
2022-08-26T08:44:54.043Z,21.95
2022-08-26T08:47:02.361Z,21.97
2022-08-26T08:49:05.003Z,22.01
2022-08-26T08:51:19.749Z,22.05
2022-08-26T08:53:31.029Z,22.08
2022-08-26T08:55:44.006Z,22.22
2022-08-26T08:58:05.003Z,22.31
2022-08-26T09:00:12.561Z,22.31
2022-08-26T09:02:24.930Z,22.33
2022-08-26T09:04:54.999Z,22.34
2022-08-26T09:07:02.732Z,22.38
2022-08-26T09:09:08.077Z,22.39
2022-08-26T09:11:11.437Z,22.40
2022-08-26T09:13:17.207Z,22.40
2022-08-26T09:15:36.192Z,22.42
2022-08-26T09:17:48.976Z,22.42
2022-08-26T09:19:55.022Z,22.45
2022-08-26T09:21:59.597Z,22.47
2022-08-26T09:24:02.236Z,22.51
2022-08-26T09:26:17.864Z,22.51
2022-08-26T09:28:23.051Z,22.53
2022-08-26T09:30:29.630Z,22.57
2022-08-26T09:32:32.237Z,22.61
2022-08-26T09:34:36.101Z,22.68
2022-08-26T09:36:41.154Z,22.71
2022-08-26T09:38:44.784Z,22.97
2022-08-26T09:40:59.171Z,22.95
2022-08-26T09:43:22.140Z,22.94
2022-08-26T09:45:29.436Z,22.96
2022-08-26T09:47:34.984Z,23.01
2022-08-26T09:49:39.779Z,23.02
2022-08-26T09:51:44.262Z,23.04
2022-08-26T09:53:54.683Z,23.10
2022-08-26T09:56:15.315Z,23.13
2022-08-26T09:58:34.281Z,23.19
2022-08-26T10:00:39.222Z,23.24
2022-08-26T10:02:47.891Z,23.28
2022-08-26T10:04:54.577Z,23.29
2022-08-26T10:07:00.095Z,23.31
2022-08-26T10:09:08.257Z,23.36
2022-08-26T10:11:18.791Z,23.40
2022-08-26T10:13:29.544Z,23.44
2022-08-26T10:15:43.369Z,23.49
2022-08-26T10:17:57.532Z,23.50
2022-08-26T10:20:22.894Z,23.53
2022-08-26T10:22:35.910Z,23.59
2022-08-26T10:24:42.532Z,23.67
2022-08-26T10:26:59.721Z,23.85
2022-08-26T10:29:11.286Z,24.12
2022-08-26T10:31:27.704Z,24.18
2022-08-26T10:33:31.428Z,24.17
2022-08-26T10:35:36.605Z,24.18
2022-08-26T10:37:42.510Z,24.29
2022-08-26T10:39:55.276Z,24.50
2022-08-26T10:42:05.762Z,24.49
2022-08-26T10:44:13.170Z,24.51
2022-08-26T10:46:22.330Z,24.56
2022-08-26T10:48:36.056Z,24.60
2022-08-26T10:50:41.395Z,24.63
2022-08-26T10:52:55.652Z,24.66
2022-08-26T10:55:04.070Z,24.68
2022-08-26T10:57:20.399Z,24.79
2022-08-26T10:59:37.092Z,24.79
2022-08-26T11:01:43.420Z,24.82
2022-08-26T11:03:58.032Z,24.89
2022-08-26T11:06:25.589Z,24.95
2022-08-26T11:08:31.646Z,25.03
2022-08-26T11:11:04.491Z,25.04
2022-08-26T11:13:07.821Z,25.03
2022-08-26T11:15:14.969Z,25.04
2022-08-26T11:17:57.979Z,25.09
2022-08-26T11:20:09.524Z,25.13
2022-08-26T11:22:28.627Z,25.19
2022-08-26T11:24:42.388Z,25.22
2022-08-26T11:26:56.114Z,25.19
2022-08-26T11:29:03.135Z,25.19
2022-08-26T11:31:11.416Z,25.22
2022-08-26T11:33:59.994Z,25.22
2022-08-26T11:36:02.928Z,25.18
2022-08-26T11:38:19.390Z,25.16
2022-08-26T11:40:26.373Z,25.19
2022-08-26T11:42:40.999Z,25.19
2022-08-26T11:44:49.419Z,25.22
2022-08-26T11:46:59.456Z,25.40
2022-08-26T11:49:05.275Z,25.41
2022-08-26T11:51:11.066Z,25.42
2022-08-26T11:53:19.306Z,25.55
2022-08-26T11:55:23.284Z,25.52
2022-08-26T11:57:27.615Z,25.66
2022-08-26T12:01:41.510Z,25.90
2022-08-26T12:03:51.098Z,25.90
2022-08-26T12:05:55.085Z,25.92
2022-08-26T12:08:03.648Z,25.93
2022-08-26T12:10:07.662Z,25.93
2022-08-26T12:12:12.928Z,25.93
2022-08-26T12:14:19.584Z,25.93
2022-08-26T12:16:25.760Z,25.98
2022-08-26T12:18:35.366Z,26.02
2022-08-26T12:20:48.179Z,26.09
2022-08-26T12:22:51.139Z,26.24
2022-08-26T12:24:56.737Z,26.30
2022-08-26T12:27:16.544Z,26.42
2022-08-26T12:29:27.192Z,26.50
2022-08-26T12:31:33.035Z,26.61
2022-08-26T12:33:36.597Z,26.73
2022-08-26T12:35:41.551Z,26.86
2022-08-26T12:37:49.323Z,26.95
2022-08-26T12:39:53.995Z,27.14
2022-08-26T12:41:58.278Z,27.29
2022-08-26T12:44:01.003Z,27.52
2022-08-26T12:46:04.614Z,27.81
2022-08-26T12:48:13.479Z,28.04
2022-08-26T12:50:20.161Z,28.31
2022-08-26T12:52:30.811Z,28.52
2022-08-26T12:54:56.080Z,28.73
2022-08-26T12:57:10.375Z,28.57
2022-08-26T12:59:23.759Z,28.64
2022-08-26T13:01:26.433Z,28.67
2022-08-26T13:03:32.105Z,28.57
2022-08-26T13:05:36.080Z,28.46
2022-08-26T13:07:40.880Z,28.48
2022-08-26T13:09:43.506Z,28.40
2022-08-26T13:11:59.451Z,28.31
2022-08-26T13:14:07.393Z,28.35
2022-08-26T13:16:10.212Z,28.23
2022-08-26T13:18:12.827Z,28.13
2022-08-26T13:20:15.661Z,28.02
2022-08-26T13:22:22.901Z,27.90
2022-08-26T13:24:32.112Z,27.80
2022-08-26T13:26:35.109Z,27.79
2022-08-26T13:28:37.830Z,27.73
2022-08-26T13:30:42.550Z,27.64
2022-08-26T13:32:45.194Z,27.55
2022-08-26T13:34:51.742Z,27.49
2022-08-26T13:36:56.391Z,27.42
2022-08-26T13:38:58.962Z,27.23
2022-08-26T13:41:03.673Z,27.06
2022-08-26T13:43:06.311Z,26.66
2022-08-26T13:45:10.716Z,26.08
2022-08-26T13:47:13.371Z,25.95
2022-08-26T13:49:16.165Z,25.78
2022-08-26T13:51:20.315Z,25.73
2022-08-26T13:53:23.174Z,25.99
2022-08-26T13:55:25.811Z,26.47
2022-08-26T13:57:31.001Z,26.52
2022-08-26T13:59:33.568Z,26.87
2022-08-26T14:01:39.631Z,27.28
2022-08-26T14:03:42.402Z,27.91
2022-08-26T14:05:45.112Z,28.50
2022-08-26T14:07:47.691Z,29.07
2022-08-26T14:09:50.374Z,29.39
2022-08-26T14:11:54.872Z,29.82
2022-08-26T14:13:59.300Z,29.83
2022-08-26T14:16:03.582Z,29.93
2022-08-26T14:18:09.766Z,29.89
2022-08-26T14:20:15.628Z,29.93
2022-08-26T14:22:21.080Z,29.91
2022-08-26T14:24:23.688Z,29.73
2022-08-26T14:26:29.442Z,29.57
2022-08-26T14:28:32.431Z,29.41
2022-08-26T14:30:38.111Z,29.19
2022-08-26T14:32:45.350Z,28.97
2022-08-26T14:34:47.918Z,28.74
2022-08-26T14:36:50.569Z,28.46
2022-08-26T14:38:54.133Z,28.19
2022-08-26T14:40:56.804Z,27.90
2022-08-26T14:43:00.484Z,27.65
2022-08-26T14:45:06.640Z,27.36
2022-08-26T14:47:11.096Z,27.04
2022-08-26T14:49:14.680Z,26.78
2022-08-26T14:51:17.299Z,26.52
2022-08-26T14:53:37.759Z,26.28
2022-08-26T14:55:42.950Z,26.09
2022-08-26T14:57:45.536Z,25.88
2022-08-26T14:59:50.250Z,25.80
2022-08-26T15:01:54.342Z,25.75
2022-08-26T15:04:01.127Z,25.68
2022-08-26T15:06:04.176Z,25.61
2022-08-26T15:08:10.456Z,25.54
2022-08-26T15:10:16.008Z,25.54
2022-08-26T15:12:18.600Z,25.57
2022-08-26T15:14:22.751Z,25.30
2022-08-26T15:16:25.350Z,25.37
2022-08-26T15:18:28.092Z,25.39
2022-08-26T15:22:42.348Z,25.42
2022-08-26T15:24:45.270Z,25.41
2022-08-26T15:26:49.400Z,25.45
2022-08-26T15:28:52.462Z,25.48
2022-08-26T15:30:55.293Z,25.51
2022-08-26T15:32:57.908Z,25.55
2022-08-26T15:35:00.520Z,25.60
2022-08-26T15:37:05.522Z,25.66
2022-08-26T15:39:08.529Z,25.68
2022-08-26T15:41:11.718Z,25.67
2022-08-26T15:43:27.635Z,25.60
2022-08-26T15:45:33.027Z,25.60
2022-08-26T15:47:55.213Z,25.63
2022-08-26T15:49:58.398Z,25.67
2022-08-26T15:52:02.756Z,25.70
2022-08-26T15:54:12.186Z,25.74
2022-08-26T15:56:14.782Z,25.76
2022-08-26T15:58:17.435Z,25.76
2022-08-26T16:00:20.672Z,25.81
2022-08-26T16:02:28.151Z,25.79
2022-08-26T16:04:34.356Z,25.75
2022-08-26T16:06:39.702Z,25.71
2022-08-26T16:08:42.504Z,25.67
2022-08-26T16:10:50.602Z,25.61
2022-08-26T16:12:53.875Z,25.56
2022-08-26T16:14:56.460Z,25.51
2022-08-26T16:16:59.029Z,25.45
2022-08-26T16:19:06.868Z,25.42
2022-08-26T16:21:15.239Z,25.35
2022-08-26T16:23:18.729Z,25.27
2022-08-26T16:25:21.536Z,25.19
2022-08-26T16:27:25.548Z,25.12
2022-08-26T16:29:28.268Z,24.97
2022-08-26T16:31:31.059Z,24.92
2022-08-26T16:33:33.921Z,24.86
2022-08-26T16:35:36.714Z,24.79
2022-08-26T16:37:40.302Z,24.76
2022-08-26T16:39:45.118Z,24.73
2022-08-26T16:41:47.928Z,24.70
2022-08-26T16:43:52.108Z,24.80
2022-08-26T16:45:54.838Z,24.81
2022-08-26T16:47:57.576Z,24.81
2022-08-26T16:50:00.536Z,24.78
2022-08-26T16:52:03.454Z,24.78
2022-08-26T16:54:08.534Z,24.71
2022-08-26T16:56:13.866Z,24.67
2022-08-26T16:58:16.713Z,24.61
2022-08-26T17:00:27.847Z,24.60
2022-08-26T17:02:30.524Z,24.56
2022-08-26T17:04:33.194Z,24.56
2022-08-26T17:06:35.896Z,24.56
2022-08-26T17:08:39.099Z,24.50
2022-08-26T17:12:49.977Z,24.47
2022-08-26T17:14:52.535Z,24.34
2022-08-26T17:16:57.009Z,24.27
2022-08-26T17:19:00.836Z,24.17
2022-08-26T17:21:05.165Z,24.17
2022-08-26T17:23:10.646Z,24.13
2022-08-26T17:25:15.524Z,24.18
2022-08-26T17:27:18.265Z,23.82
2022-08-26T17:29:20.837Z,23.89
2022-08-26T17:31:24.495Z,23.93
2022-08-26T17:33:29.472Z,23.76
2022-08-26T17:35:32.435Z,23.54
2022-08-26T17:37:35.650Z,23.58
2022-08-26T17:39:43.860Z,23.63
2022-08-26T17:41:46.450Z,23.66
2022-08-26T17:43:49.316Z,23.73
2022-08-26T17:45:52.621Z,23.83
2022-08-26T17:47:55.781Z,23.91
2022-08-26T17:50:00.835Z,24.00
2022-08-26T17:52:03.907Z,24.04
2022-08-26T17:54:07.488Z,24.05
2022-08-26T17:56:13.672Z,24.08
2022-08-26T17:58:17.142Z,23.96
2022-08-26T18:00:22.279Z,23.86
2022-08-26T18:02:24.983Z,23.88
2022-08-26T18:04:27.719Z,23.86
2022-08-26T18:06:31.774Z,23.88
2022-08-26T18:08:34.319Z,23.77
2022-08-26T18:10:36.904Z,23.70
2022-08-26T18:12:40.945Z,23.69
2022-08-26T18:14:43.496Z,23.74
2022-08-26T18:16:46.385Z,23.79
2022-08-26T18:18:53.336Z,23.79
2022-08-26T18:21:01.413Z,23.76
2022-08-26T18:23:06.432Z,23.71
2022-08-26T18:25:10.189Z,23.62
2022-08-26T18:27:12.751Z,23.54
2022-08-26T18:29:16.960Z,23.50
2022-08-26T18:31:19.963Z,23.45
2022-08-26T18:33:22.635Z,23.51
2022-08-26T18:35:28.301Z,23.37
2022-08-26T18:37:32.190Z,23.33
2022-08-26T18:39:36.100Z,23.34
2022-08-26T18:41:42.300Z,23.28
2022-08-26T18:43:44.885Z,23.09
2022-08-26T18:45:47.577Z,23.09
2022-08-26T18:47:50.227Z,23.06
2022-08-26T18:49:52.834Z,23.05
2022-08-26T18:51:55.472Z,22.97
2022-08-26T18:53:58.987Z,23.04
2022-08-26T18:56:02.875Z,23.06
2022-08-26T18:58:05.597Z,23.07
2022-08-26T19:00:10.170Z,23.16
2022-08-26T19:02:13.314Z,23.17
2022-08-26T19:04:15.992Z,23.13
2022-08-26T19:06:21.364Z,23.07
2022-08-26T19:08:23.945Z,23.04
2022-08-26T19:10:26.665Z,23.03
2022-08-26T19:12:30.671Z,23.02
2022-08-26T19:14:36.738Z,23.00
2022-08-26T19:16:39.391Z,23.03
2022-08-26T19:18:42.298Z,23.04
2022-08-26T19:20:47.802Z,22.98
2022-08-26T19:22:50.351Z,22.98
2022-08-26T19:24:52.984Z,22.97
2022-08-26T19:26:58.289Z,22.95
2022-08-26T19:29:02.799Z,23.00
2022-08-26T19:31:05.395Z,23.03
2022-08-26T19:33:09.158Z,23.15
2022-08-26T19:35:11.833Z,23.28
2022-08-26T19:37:14.610Z,23.29
2022-08-26T19:39:17.548Z,23.24
2022-08-26T19:41:27.788Z,23.17
2022-08-26T19:43:40.021Z,23.11
2022-08-26T19:45:45.062Z,22.99
2022-08-26T19:47:47.985Z,22.90
2022-08-26T19:49:54.500Z,22.71
2022-08-26T19:51:57.164Z,22.70
2022-08-26T19:54:01.639Z,22.80
2022-08-26T19:56:04.540Z,22.89
2022-08-26T19:58:07.916Z,22.90
2022-08-26T20:00:14.778Z,22.84
2022-08-26T20:02:19.223Z,22.81
2022-08-26T20:04:22.127Z,22.83
2022-08-26T20:06:25.066Z,22.84
2022-08-26T20:08:28.538Z,22.79
2022-08-26T20:10:34.948Z,22.77
2022-08-26T20:12:37.703Z,22.80
2022-08-26T20:14:40.651Z,22.81
2022-08-26T20:16:43.557Z,22.79
2022-08-26T20:19:05.467Z,22.74
2022-08-26T20:21:25.867Z,22.68
2022-08-26T20:23:28.440Z,22.63
2022-08-26T20:25:32.475Z,22.59
2022-08-26T20:27:38.270Z,22.55
2022-08-26T20:29:42.699Z,22.50
2022-08-26T20:31:46.391Z,22.45
2022-08-26T20:33:51.575Z,22.32
2022-08-26T20:35:54.200Z,22.25
2022-08-26T20:37:56.782Z,22.21
2022-08-26T20:39:59.451Z,22.17
2022-08-26T20:42:02.640Z,22.17
2022-08-26T20:44:05.899Z,22.16
2022-08-26T20:46:12.780Z,22.19
2022-08-26T20:48:21.529Z,22.24
2022-08-26T20:50:25.487Z,22.28
2022-08-26T20:52:28.070Z,22.31
2022-08-26T20:54:30.752Z,22.40
2022-08-26T20:56:34.042Z,22.44
2022-08-26T20:58:37.894Z,22.45
2022-08-26T21:00:40.515Z,22.44
2022-08-26T21:02:43.766Z,22.42
2022-08-26T21:04:46.463Z,22.38
2022-08-26T21:06:52.881Z,22.44
2022-08-26T21:08:56.941Z,22.43
2022-08-26T21:11:00.409Z,22.39
2022-08-26T21:13:03.168Z,22.26
2022-08-26T21:15:07.381Z,22.13
2022-08-26T21:17:09.947Z,22.09
2022-08-26T21:19:14.959Z,22.11
2022-08-26T21:21:17.847Z,22.14
2022-08-26T21:23:23.142Z,22.11
2022-08-26T21:25:28.006Z,22.02
2022-08-26T21:27:30.657Z,21.90
2022-08-26T21:29:33.236Z,21.87
2022-08-26T21:31:36.413Z,21.92
2022-08-26T21:33:40.006Z,21.87
2022-08-26T21:35:42.599Z,21.81
2022-08-26T21:37:45.181Z,21.78
2022-08-26T21:39:49.157Z,21.75
2022-08-26T21:41:51.772Z,21.80
2022-08-26T21:43:59.126Z,21.93
2022-08-26T21:46:03.912Z,21.82
2022-08-26T21:48:07.794Z,21.83
2022-08-26T21:50:11.306Z,21.72
2022-08-26T21:52:13.914Z,21.66
2022-08-26T21:54:18.005Z,21.61
2022-08-26T21:56:24.724Z,21.57
2022-08-26T21:58:27.338Z,21.55
2022-08-26T22:00:29.955Z,21.50
2022-08-26T22:02:32.690Z,21.44
2022-08-26T22:04:37.309Z,21.58
2022-08-26T22:06:43.240Z,21.49
2022-08-26T22:08:45.858Z,21.46
2022-08-26T22:10:51.778Z,21.45
2022-08-26T22:12:55.972Z,21.50
2022-08-26T22:14:59.229Z,21.52
2022-08-26T22:17:02.917Z,21.54
2022-08-26T22:19:05.613Z,21.37
2022-08-26T22:21:10.287Z,21.42
2022-08-26T22:23:14.762Z,21.43
2022-08-26T22:25:20.417Z,21.40
2022-08-26T22:27:23.008Z,21.38
2022-08-26T22:29:27.000Z,21.41
2022-08-26T22:31:37.362Z,21.38
2022-08-26T22:33:42.620Z,21.31
2022-08-26T22:35:47.232Z,21.20
2022-08-26T22:37:49.888Z,21.17
2022-08-26T22:39:52.479Z,21.08
2022-08-26T22:41:56.796Z,21.06
2022-08-26T22:43:59.415Z,20.99
2022-08-26T22:46:03.542Z,20.86
2022-08-26T22:48:06.523Z,20.93
2022-08-26T22:50:10.140Z,20.94
2022-08-26T22:52:12.699Z,21.03
2022-08-26T22:54:16.439Z,21.03
2022-08-26T22:56:21.100Z,21.06
2022-08-26T22:58:30.833Z,20.94
2022-08-26T23:00:34.377Z,20.95
2022-08-26T23:02:38.345Z,21.01
2022-08-26T23:04:41.305Z,20.97
2022-08-26T23:06:47.666Z,20.98
2022-08-26T23:08:50.617Z,21.09
2022-08-26T23:10:53.356Z,21.20
2022-08-26T23:12:55.936Z,21.33
2022-08-26T23:14:58.555Z,21.35
2022-08-26T23:17:01.267Z,21.29
2022-08-26T23:19:08.396Z,21.20
2022-08-26T23:21:11.905Z,20.99
2022-08-26T23:23:14.459Z,21.08
2022-08-26T23:25:17.083Z,21.09
2022-08-26T23:27:20.431Z,21.06
2022-08-26T23:29:23.053Z,21.10
2022-08-26T23:31:25.812Z,21.15
2022-08-26T23:33:48.841Z,21.35
2022-08-26T23:35:51.805Z,21.34
2022-08-26T23:37:54.626Z,21.33
2022-08-26T23:40:04.518Z,21.37
2022-08-26T23:42:07.476Z,21.39
2022-08-26T23:44:10.139Z,21.49
2022-08-26T23:46:12.801Z,21.57
2022-08-26T23:48:15.387Z,21.61
2022-08-26T23:50:44.648Z,21.51
2022-08-26T23:53:05.529Z,21.49
2022-08-26T23:55:10.658Z,21.43
2022-08-26T23:57:13.261Z,21.36
2022-08-26T23:59:15.859Z,21.38
